Gulf Shores, AL (36542)

2:23 PM CDT on July 28, 2015 (GMT -0500)
West Beach | | Change Station
CLOSE
Current Station
Personal Weather Station
Location: Gulf Shores, AL
Elevation: 39 ft
Nearby Weather Stations

Elev 39 ft 30.25 °N, 87.72 °W | Updated 1 minute ago

Overcast
Overcast
95.8 °F
Feels Like 116 °F
N
5.0
Wind Variable Wind from SW
Gusts 11.0 mph

Today
High -- | Low -- °F
--% Chance of Precip.
Yesterday
High -- | Low -- °F
Precip. -- in
6:06 AM 7:47 PM
Waxing Gibbous, 91% visible
Pressure 29.97 in
Visibility 10.0 miles
Clouds Scattered Clouds 4600 ft
Mostly Cloudy 7000 ft
Overcast 8500 ft
Heat Index 116 °F
Dew Point 80 °F
Humidity 60%
Rainfall 0.00 in
Snow Depth Not available.
UV 4 out of 12
Pollen 3.50 out of 12
Air Quality Not available.
Flu Activity Not available.
METAR KJKA 281915Z AUTO 26006KT 10SM SCT046 BKN070 OVC085 33/24 A2997 RMK AO2 T03320240

More Conditions Fewer Conditions

Pressure 29.97 in
Visibility 10.0 miles
Clouds Scattered Clouds 4600 ft
Mostly Cloudy 7000 ft
Overcast 8500 ft
Heat Index 116 °F
Dew Point 80 °F
Humidity 60%
Rainfall 0.00 in
Snow Depth Not available.
UV 4 out of 12
Pollen 3.50 out of 12
Air Quality Not available.
Flu Activity Not available.
METAR KJKA 281915Z AUTO 26006KT 10SM SCT046 BKN070 OVC085 33/24 A2997 RMK AO2 T03320240

More Conditions Fewer Conditions

10-Day Weather Forecast

×

Almanac

Astronomy

Jul. 28, 2015 Rise Set
Actual Time
Civil Twilight
Nautical Twilight
Astronomical Twilight
Moon
Length of Visible Light
Length of Day
Tomorrow will be .
, % of the Moon is Illuminated

Today's Extremes

State Highs State Lows

Community

WunderPhotos

Upload Photos

1,841,924 photos uploaded!

WunderBlogs® & News

Nearby

Air Quality

  Air Quality AQ Index Pollutant
Not available.

Snow Depth

Station Depth Elevation

Earthquake Activity

City Distance Mag. Time & Date
Minimum magnitude displayed is 2.5.

Coastal Water Temperatures

Place Temperature

Stations

Nearby Weather Stations

Station Location Temp. Windchill Dew Point Humidity Wind Precip. Elev Updated Type